Terminal Aerodrome Forecast
Issued by NWS Austin/San Antonio, TX

Home | Current Version | Previous Version | Text Only | Print | Product List | Glossary On
Versions: 1 2 3 4 5 6 7 8 9 10 11 12 13 14 15 16 17 18 19
314
FTUS44 KEWX 260304 AAB
TAFSAT
TAF AMD
KSAT 260304Z 2603/2706 16015KT P6SM BKN012
     FM260700 18012KT 6SM BR OVC008
     FM261400 28017G27KT P6SM SKC
     FM261900 30014G24KT P6SM FEW250
     FM270000 34010KT P6SM FEW250=

USA.gov is the U.S. government's official web portal to all federal, state and local government web resources and services.